Peawanuck Airport
CYPO : rendu visible

Aérodrome :











RETROUVEZ-NOUS SUR...

 
LOGIN :

S'inscrire | Disclaimer

   EN    FR    IT 

 









Légende :    VFR   VFR Marginal   IFR   IFR Intensif   IFR Très Intensif
Visi : 
Plafond : 
>= 8 km
>= 3000ft
5 à 8 km
1000 à 3000 ft
1500m à 5 km
500 à 1000 ft
800 à 1500m
200 à 500 ft
< 800m
< 200 ft
Symboles :   Orages  Brouillard  Fortes neiges  Fortes précipitations  Vent > 20 kt






- Altitude de l'aérodrome : 173 ft
- Code IATA : YPO


CYPO - Peawanuck

DERNIER METAR :
  • 222310Z AUTO 18008KT 2SM -SN BKN024 OVC050 M07/M09 A2935 RMK SLP948

METARs EXPIRÉS :
  • 222257Z AUTO 18007KT 2 1/2SM -SN BKN030 OVC048 M07/M09 A2936 RMK SLP950
  • 222240Z AUTO 19008KT 3SM -SN BKN032 OVC045 M07/M09 A2937 RMK SLP953
  • 222233Z AUTO 19009KT 2 1/2SM -SN BKN034 OVC045 M07/M09 A2937 RMK VIS VRB 1 3/4-3 SLP954
  • 222217Z AUTO 19009KT 5SM -SN BKN036 OVC045 M07/M09 A2938 RMK SLP957
  • 222209Z AUTO 19009KT 6SM -SN OVC034 M08/M09 A2938 RMK SLP958
  • 222132Z AUTO 19010KT 2 1/4SM -SN OVC034 M08/M09 A2940 RMK SLP963
  • 222117Z AUTO 19008KT 3SM -SN BKN038 OVC050 M08/M10 A2941 RMK PRESFR SLP966
  • 222057Z AUTO 19007KT 3SM -SN FEW026 OVC034 M08/M09 A2942 RMK SLP971
  • 222043Z AUTO 20008KT 2 1/2SM -SN OVC034 M08/M10 A2943 RMK SLP973

TAF N/A



MET'MAP, la Météo Aéronautique d'un coup d'oeil ! - Copyright ORBIFLY Décembre 2007 - Disclaimer

ORBIFLY MET'MAP TEAM :

Programmation & Développement : Alexandra Zaïnal
Conception & Développement : Baudouin d'Aumeries
Co-Programmation & Développement : Marc-Olivier Méhu
Soutien technique & logistique : Manuel Goepfert

Contact : metmap@orbifly.com




SOURCES & CREDITS :

   NOAA       Earth
Advisory